createdAt,value
2022-10-17T00:00:59.838Z,75.93
2022-10-17T00:03:26.993Z,75.98
2022-10-17T00:05:54.038Z,75.96
2022-10-17T00:08:21.477Z,75.86
2022-10-17T00:11:08.497Z,76.59
2022-10-17T00:13:35.941Z,75.98
2022-10-17T00:16:02.868Z,75.93
2022-10-17T00:18:29.894Z,76.59
2022-10-17T00:20:56.863Z,76.58
2022-10-17T00:23:24.155Z,76.31
2022-10-17T00:26:05.780Z,76.00
2022-10-17T00:28:33.225Z,76.40
2022-10-17T00:31:04.566Z,76.25
2022-10-17T00:33:34.311Z,76.78
2022-10-17T00:36:07.271Z,76.92
2022-10-17T00:38:37.315Z,76.78
2022-10-17T00:41:05.073Z,76.97
2022-10-17T00:43:58.459Z,77.56
2022-10-17T00:46:36.687Z,77.59
2022-10-17T00:49:10.278Z,77.24
2022-10-17T00:51:53.105Z,77.13
2022-10-17T00:54:27.577Z,77.93
2022-10-17T00:56:55.319Z,77.07
2022-10-17T00:59:23.917Z,77.43
2022-10-17T01:02:16.841Z,77.52
2022-10-17T01:04:47.809Z,77.59
2022-10-17T01:07:14.799Z,77.45
2022-10-17T01:09:44.678Z,78.07
2022-10-17T01:12:37.044Z,77.74
2022-10-17T01:15:50.458Z,77.71
2022-10-17T01:18:37.665Z,77.65
2022-10-17T01:21:30.490Z,77.65
2022-10-17T01:24:44.281Z,78.07
2022-10-17T01:27:36.225Z,78.32
2022-10-17T01:30:24.194Z,78.32
2022-10-17T01:33:18.029Z,78.55
2022-10-17T01:36:18.919Z,78.96
2022-10-17T01:38:54.463Z,78.64
2022-10-17T01:41:39.656Z,79.15
2022-10-17T01:44:18.417Z,78.60
2022-10-17T01:46:51.315Z,79.62
2022-10-17T01:49:24.832Z,79.00
2022-10-17T01:52:15.202Z,79.36
2022-10-17T01:55:09.370Z,79.39
2022-10-17T01:57:42.869Z,79.62
2022-10-17T02:00:15.588Z,79.31
2022-10-17T02:02:45.343Z,79.53
2022-10-17T02:05:12.681Z,78.99
2022-10-17T02:07:43.357Z,78.98
2022-10-17T02:10:24.012Z,79.08
2022-10-17T02:13:18.361Z,79.25
2022-10-17T02:16:29.597Z,79.23
2022-10-17T02:19:36.907Z,79.47
2022-10-17T02:22:25.551Z,79.08
2022-10-17T02:25:19.689Z,79.30
2022-10-17T02:28:10.835Z,79.08
2022-10-17T02:31:03.734Z,79.28
2022-10-17T02:33:45.196Z,78.72
2022-10-17T02:36:19.235Z,79.32
2022-10-17T02:38:46.960Z,78.97
2022-10-17T02:41:18.432Z,79.17
2022-10-17T02:43:49.166Z,78.99
2022-10-17T02:46:22.506Z,78.46
2022-10-17T02:48:57.146Z,78.71
2022-10-17T02:51:43.832Z,78.96
2022-10-17T02:54:34.563Z,79.19
2022-10-17T02:57:14.992Z,79.10
2022-10-17T02:59:45.782Z,78.70
2022-10-17T03:02:13.264Z,78.85
2022-10-17T03:04:44.347Z,78.50
2022-10-17T03:07:11.438Z,78.87
2022-10-17T03:09:38.528Z,78.77
2022-10-17T03:12:06.217Z,78.83
2022-10-17T03:14:34.728Z,78.70
2022-10-17T03:17:04.016Z,78.25
2022-10-17T03:19:31.419Z,78.85
2022-10-17T03:21:58.574Z,78.63
2022-10-17T03:24:25.538Z,78.90
2022-10-17T03:26:52.482Z,78.95
2022-10-17T03:29:19.696Z,79.22
2022-10-17T03:31:47.740Z,79.25
2022-10-17T03:34:17.692Z,78.82
2022-10-17T03:36:45.871Z,79.47
2022-10-17T03:39:13.239Z,78.46
2022-10-17T03:41:40.301Z,78.91
2022-10-17T03:44:07.890Z,78.48
2022-10-17T03:46:35.417Z,78.57
2022-10-17T03:49:02.476Z,78.32
2022-10-17T03:51:29.879Z,78.51
2022-10-17T03:54:03.002Z,78.08
2022-10-17T03:56:30.080Z,78.69
2022-10-17T03:59:01.991Z,78.55
2022-10-17T04:01:30.916Z,78.48
2022-10-17T04:03:58.157Z,78.51
2022-10-17T04:06:29.497Z,78.43
2022-10-17T04:08:56.709Z,78.41
2022-10-17T04:11:33.207Z,78.63
2022-10-17T04:14:03.114Z,78.35
2022-10-17T04:16:30.667Z,78.78
2022-10-17T04:19:01.720Z,78.94
2022-10-17T04:21:34.184Z,78.83
2022-10-17T04:24:07.154Z,78.90
2022-10-17T04:26:50.132Z,79.03
2022-10-17T04:29:18.635Z,79.25
2022-10-17T04:31:49.892Z,79.57
2022-10-17T04:34:30.803Z,79.36
2022-10-17T04:36:57.797Z,79.19
2022-10-17T04:39:24.756Z,79.87
2022-10-17T04:41:52.196Z,79.74
2022-10-17T04:44:20.854Z,80.34
2022-10-17T04:46:51.744Z,80.88
2022-10-17T04:49:20.003Z,80.89
2022-10-17T04:51:49.849Z,81.34
2022-10-17T04:54:23.565Z,80.98
2022-10-17T04:56:57.578Z,81.45
2022-10-17T04:59:26.018Z,81.27
2022-10-17T05:02:04.273Z,81.64
2022-10-17T05:04:33.201Z,81.75
2022-10-17T05:07:00.702Z,82.19
2022-10-17T05:09:48.024Z,82.56
2022-10-17T05:12:18.103Z,83.01
2022-10-17T05:14:46.681Z,82.71
2022-10-17T05:17:14.841Z,83.21
2022-10-17T05:19:41.867Z,82.68
2022-10-17T05:22:09.519Z,83.68
2022-10-17T05:24:36.826Z,83.31
2022-10-17T05:27:04.247Z,83.54
2022-10-17T05:29:31.378Z,84.09
2022-10-17T05:32:06.754Z,83.80
2022-10-17T05:34:35.195Z,84.05
2022-10-17T05:37:02.356Z,83.82
2022-10-17T05:39:29.646Z,84.10
2022-10-17T05:41:58.261Z,84.24
2022-10-17T05:44:26.086Z,84.55
2022-10-17T05:46:57.598Z,85.19
2022-10-17T05:49:33.397Z,84.86
2022-10-17T05:52:12.712Z,84.89
2022-10-17T05:54:55.366Z,85.20
2022-10-17T05:57:26.335Z,85.41
2022-10-17T05:59:54.696Z,85.29
2022-10-17T06:02:22.254Z,85.73
2022-10-17T06:04:50.559Z,85.03
2022-10-17T06:07:20.392Z,85.93
2022-10-17T06:09:49.239Z,85.99
2022-10-17T06:12:16.978Z,86.33
2022-10-17T06:14:45.240Z,86.49
2022-10-17T06:17:15.945Z,86.90
2022-10-17T06:19:44.931Z,86.88
2022-10-17T06:22:14.660Z,87.22
2022-10-17T06:24:42.610Z,87.25
2022-10-17T06:27:12.118Z,87.14
2022-10-17T06:29:40.921Z,87.68
2022-10-17T06:32:11.085Z,87.33
2022-10-17T06:34:41.934Z,87.86
2022-10-17T06:37:09.990Z,87.94
2022-10-17T06:39:39.906Z,88.16
2022-10-17T06:42:16.585Z,87.89
2022-10-17T06:45:08.589Z,88.07
2022-10-17T06:47:53.714Z,88.54
2022-10-17T06:50:35.826Z,88.57
2022-10-17T06:53:25.029Z,89.24
2022-10-17T06:55:54.132Z,89.67
2022-10-17T06:58:54.782Z,89.59
2022-10-17T07:01:47.127Z,90.26
2022-10-17T07:04:15.955Z,90.04
2022-10-17T07:06:44.161Z,90.33
2022-10-17T07:09:17.143Z,90.75
2022-10-17T07:11:45.287Z,90.84
2022-10-17T07:14:16.282Z,91.08
2022-10-17T07:16:43.388Z,91.51
2022-10-17T07:19:19.688Z,91.21
2022-10-17T07:21:46.793Z,91.52
2022-10-17T07:24:13.777Z,91.58
2022-10-17T07:26:45.801Z,91.28
2022-10-17T07:29:13.511Z,91.48
2022-10-17T07:31:45.733Z,92.27
2022-10-17T07:34:13.018Z,91.85
2022-10-17T07:36:40.849Z,91.85
2022-10-17T07:39:08.902Z,91.73
2022-10-17T07:41:38.062Z,92.05
2022-10-17T07:44:05.879Z,92.08
2022-10-17T07:46:37.602Z,92.31
2022-10-17T07:49:05.666Z,92.04
2022-10-17T07:51:34.132Z,92.12
2022-10-17T07:54:01.489Z,92.26
2022-10-17T07:56:29.734Z,92.60
2022-10-17T08:01:25.908Z,92.15
2022-10-17T08:03:52.788Z,91.83
2022-10-17T08:06:19.979Z,92.18
2022-10-17T08:08:46.890Z,92.06
2022-10-17T08:11:15.666Z,92.02
2022-10-17T08:13:43.650Z,91.84
2022-10-17T08:16:13.331Z,92.36
2022-10-17T08:18:42.577Z,92.08
2022-10-17T08:21:11.133Z,92.54
2022-10-17T08:23:38.273Z,92.97
2022-10-17T08:26:10.700Z,92.53
2022-10-17T08:28:40.232Z,92.85
2022-10-17T08:31:11.706Z,93.11
2022-10-17T08:33:38.995Z,92.87
2022-10-17T08:36:07.152Z,92.51
2022-10-17T08:38:37.589Z,92.65
2022-10-17T08:41:47.881Z,92.64
2022-10-17T08:44:41.947Z,93.12
2022-10-17T08:47:36.568Z,92.88
2022-10-17T08:50:08.645Z,92.69
2022-10-17T08:52:49.324Z,92.90
2022-10-17T08:55:41.491Z,92.87
2022-10-17T08:58:24.094Z,92.56
2022-10-17T09:01:24.672Z,93.20
2022-10-17T09:04:22.908Z,92.82
2022-10-17T09:07:27.373Z,92.29
2022-10-17T09:10:04.619Z,92.93
2022-10-17T09:13:07.707Z,92.18
2022-10-17T09:16:07.465Z,92.23
2022-10-17T09:18:40.189Z,92.52
2022-10-17T09:21:21.256Z,91.91
2022-10-17T09:24:09.003Z,91.18
2022-10-17T09:26:39.661Z,91.40
2022-10-17T09:29:40.177Z,91.37
2022-10-17T09:32:23.281Z,91.25
2022-10-17T09:34:53.378Z,90.71
2022-10-17T09:37:31.509Z,91.06
2022-10-17T09:39:58.550Z,90.56
2022-10-17T09:42:28.479Z,90.52
2022-10-17T09:45:01.468Z,90.58
2022-10-17T09:47:41.489Z,90.12
2022-10-17T09:50:28.553Z,90.25
2022-10-17T09:53:19.650Z,89.84
2022-10-17T09:55:51.456Z,88.51
2022-10-17T09:58:20.697Z,88.00
2022-10-17T10:00:49.202Z,87.84
2022-10-17T10:03:25.667Z,88.29
2022-10-17T10:06:01.254Z,87.17
2022-10-17T10:08:38.206Z,87.70
2022-10-17T10:11:13.393Z,87.24
2022-10-17T10:13:43.020Z,87.15
2022-10-17T10:16:31.895Z,86.05
2022-10-17T10:18:59.368Z,86.52
2022-10-17T10:21:27.740Z,85.32
2022-10-17T10:24:09.834Z,85.61
2022-10-17T10:26:45.178Z,85.59
2022-10-17T10:29:49.191Z,84.43
2022-10-17T10:32:26.878Z,84.99
2022-10-17T10:35:00.181Z,84.74
2022-10-17T10:37:39.851Z,84.38
2022-10-17T10:40:23.488Z,83.53
2022-10-17T10:42:57.217Z,83.82
2022-10-17T10:45:47.621Z,83.37
2022-10-17T10:48:35.893Z,83.79
2022-10-17T10:51:19.874Z,83.15
2022-10-17T10:54:21.841Z,83.84
2022-10-17T10:56:59.300Z,83.57
2022-10-17T10:59:36.583Z,82.99
2022-10-17T11:02:30.496Z,82.58
2022-10-17T11:05:05.334Z,82.20
2022-10-17T11:07:39.859Z,81.53
2022-10-17T11:10:39.506Z,81.50
2022-10-17T11:13:16.201Z,81.65
2022-10-17T11:15:51.769Z,81.26
2022-10-17T11:18:35.150Z,81.14
2022-10-17T11:21:46.638Z,80.94
2022-10-17T11:24:25.687Z,80.72
2022-10-17T11:27:01.814Z,80.33
2022-10-17T11:29:33.044Z,80.28
2022-10-17T11:32:15.499Z,80.06
2022-10-17T11:34:56.590Z,79.48
2022-10-17T11:37:34.468Z,79.56
2022-10-17T11:40:30.892Z,78.73
2022-10-17T11:43:20.665Z,78.23
2022-10-17T11:45:57.347Z,78.97
2022-10-17T11:48:32.384Z,78.07
2022-10-17T11:54:20.814Z,76.91
2022-10-17T11:57:10.761Z,76.79
2022-10-17T12:00:10.247Z,76.26
2022-10-17T12:03:24.611Z,75.62
2022-10-17T12:06:08.636Z,74.83
2022-10-17T12:08:44.743Z,74.56
2022-10-17T12:11:56.446Z,74.33
2022-10-17T12:14:36.710Z,72.85
2022-10-17T12:17:23.215Z,72.87
2022-10-17T12:19:50.450Z,73.00
2022-10-17T12:22:21.763Z,72.77
2022-10-17T12:24:58.057Z,72.41
2022-10-17T12:27:45.864Z,72.38
2022-10-17T12:30:13.531Z,71.69
2022-10-17T12:33:07.101Z,71.84
2022-10-17T12:35:37.937Z,71.98
2022-10-17T12:38:17.003Z,72.14
2022-10-17T12:40:48.520Z,72.67
2022-10-17T12:43:15.885Z,72.82
2022-10-17T12:45:59.156Z,73.00
2022-10-17T12:48:38.646Z,72.73
2022-10-17T12:51:35.411Z,72.39
2022-10-17T12:54:15.212Z,70.99
2022-10-17T12:56:48.192Z,70.57
2022-10-17T12:59:22.508Z,70.99
2022-10-17T13:01:57.706Z,70.22
2022-10-17T13:04:26.013Z,70.15
2022-10-17T13:06:58.665Z,69.87
2022-10-17T13:09:37.425Z,69.00
2022-10-17T13:12:13.192Z,69.08
2022-10-17T13:14:43.303Z,69.77
2022-10-17T13:17:28.291Z,69.11
2022-10-17T13:19:56.366Z,68.38
2022-10-17T13:22:28.148Z,69.30
2022-10-17T13:25:16.020Z,68.83
2022-10-17T13:27:43.472Z,69.15
2022-10-17T13:30:27.947Z,68.57
2022-10-17T13:32:58.225Z,68.43
2022-10-17T13:35:55.308Z,67.34
2022-10-17T13:38:17.276Z,66.92
2022-10-17T13:40:50.023Z,67.00
2022-10-17T13:43:24.238Z,66.82
2022-10-17T13:46:02.264Z,67.23
2022-10-17T13:48:38.315Z,66.42
2022-10-17T13:51:10.294Z,65.74
2022-10-17T13:53:42.513Z,65.21
2022-10-17T13:56:29.969Z,64.00
2022-10-17T13:59:18.447Z,63.62
2022-10-17T14:01:45.972Z,63.67
2022-10-17T14:04:19.905Z,63.69
2022-10-17T14:06:51.314Z,63.28
2022-10-17T14:09:26.144Z,63.01
2022-10-17T14:12:11.165Z,62.30
2022-10-17T14:15:05.181Z,62.20
2022-10-17T14:17:29.612Z,62.72
2022-10-17T14:20:36.329Z,62.36
2022-10-17T14:23:20.905Z,62.33
2022-10-17T14:25:41.128Z,63.19
2022-10-17T14:28:11.735Z,62.85
2022-10-17T14:30:56.210Z,62.86
2022-10-17T14:33:30.773Z,62.29
2022-10-17T14:36:00.720Z,62.90
2022-10-17T14:38:29.995Z,62.84
2022-10-17T14:41:29.687Z,62.88
2022-10-17T14:43:56.245Z,63.19
2022-10-17T14:46:24.567Z,63.77
2022-10-17T14:49:02.601Z,62.84
2022-10-17T14:51:39.961Z,63.07
2022-10-17T14:54:26.273Z,63.06
2022-10-17T14:56:54.965Z,63.50
2022-10-17T14:59:52.363Z,63.48
2022-10-17T15:02:13.849Z,63.99
2022-10-17T15:04:41.290Z,63.86
2022-10-17T15:07:14.530Z,63.37
2022-10-17T15:09:43.075Z,63.11
2022-10-17T15:12:20.273Z,63.38
2022-10-17T15:14:48.614Z,63.61
2022-10-17T15:17:38.000Z,64.39
2022-10-17T15:20:20.435Z,64.66
2022-10-17T15:22:48.678Z,64.97
2022-10-17T15:25:15.653Z,65.09
2022-10-17T15:27:42.543Z,65.57
2022-10-17T15:30:32.220Z,65.65
2022-10-17T15:32:59.947Z,66.00
2022-10-17T15:35:28.373Z,66.27
2022-10-17T15:37:55.861Z,66.61
2022-10-17T15:40:29.498Z,66.59
2022-10-17T15:42:57.366Z,67.34
2022-10-17T15:45:24.458Z,67.49
2022-10-17T15:47:59.235Z,68.01
2022-10-17T15:50:29.106Z,68.36
2022-10-17T15:52:56.590Z,68.72
2022-10-17T15:55:23.956Z,68.75
2022-10-17T15:57:51.205Z,68.70
2022-10-17T16:00:24.837Z,68.75
2022-10-17T16:02:51.936Z,68.57
2022-10-17T16:05:29.174Z,68.65
2022-10-17T16:07:57.858Z,68.70
2022-10-17T16:10:28.262Z,69.45
2022-10-17T16:12:56.239Z,69.29
2022-10-17T16:15:26.599Z,69.59
2022-10-17T16:17:57.387Z,69.37
2022-10-17T16:20:26.209Z,69.47
2022-10-17T16:22:59.892Z,69.57
2022-10-17T16:25:28.908Z,69.96
2022-10-17T16:27:59.610Z,69.77
2022-10-17T16:30:30.123Z,70.02
2022-10-17T16:32:57.370Z,69.96
2022-10-17T16:35:33.256Z,69.57
2022-10-17T16:38:05.572Z,69.98
2022-10-17T16:40:32.753Z,69.93
2022-10-17T16:42:59.998Z,69.84
2022-10-17T16:45:27.169Z,69.72
2022-10-17T16:47:54.273Z,70.12
2022-10-17T16:50:21.581Z,70.10
2022-10-17T16:52:48.748Z,70.02
2022-10-17T16:55:18.851Z,70.42
2022-10-17T16:57:46.308Z,70.11
2022-10-17T17:00:15.948Z,70.58
2022-10-17T17:02:43.425Z,70.19
2022-10-17T17:05:10.797Z,69.83
2022-10-17T17:07:38.019Z,69.93
2022-10-17T17:10:06.128Z,70.22
2022-10-17T17:12:35.696Z,70.08
2022-10-17T17:15:04.325Z,70.79
2022-10-17T17:17:49.272Z,70.96
2022-10-17T17:20:25.147Z,71.11
2022-10-17T17:22:52.899Z,71.56
2022-10-17T17:25:20.000Z,71.57
2022-10-17T17:27:47.059Z,71.74
2022-10-17T17:30:14.081Z,71.89
2022-10-17T17:32:41.101Z,71.91
2022-10-17T17:35:09.496Z,71.92
2022-10-17T17:37:36.602Z,72.56
2022-10-17T17:40:05.921Z,72.49
2022-10-17T17:42:32.911Z,72.79
2022-10-17T17:44:59.994Z,72.95
2022-10-17T17:47:29.469Z,72.87
2022-10-17T17:49:56.921Z,72.91
2022-10-17T17:52:23.863Z,73.17
2022-10-17T17:54:51.111Z,73.29
2022-10-17T17:57:18.554Z,73.58
2022-10-17T17:59:45.538Z,73.91
2022-10-17T18:02:12.629Z,73.47
2022-10-17T18:04:39.645Z,73.83
2022-10-17T18:07:06.773Z,73.72
2022-10-17T18:09:33.837Z,74.05
2022-10-17T18:12:00.810Z,74.10
2022-10-17T18:14:27.846Z,74.12
2022-10-17T18:16:54.800Z,73.66
2022-10-17T18:19:23.800Z,73.63
2022-10-17T18:21:50.737Z,74.01
2022-10-17T18:24:17.597Z,73.93
2022-10-17T18:26:44.691Z,73.85
2022-10-17T18:29:12.849Z,74.19
2022-10-17T18:31:39.818Z,74.38
2022-10-17T18:34:06.934Z,74.10
2022-10-17T18:36:35.516Z,74.78
2022-10-17T18:39:04.707Z,74.44
2022-10-17T18:41:32.221Z,74.98
2022-10-17T18:43:59.376Z,75.14
2022-10-17T18:46:40.830Z,75.23
2022-10-17T18:49:09.900Z,74.74
2022-10-17T18:51:37.543Z,75.24
2022-10-17T18:54:04.919Z,74.95
2022-10-17T18:56:32.059Z,74.59
2022-10-17T18:59:00.292Z,75.00
2022-10-17T19:01:28.537Z,75.03
2022-10-17T19:03:58.654Z,74.90
2022-10-17T19:06:31.719Z,74.79
2022-10-17T19:09:02.415Z,74.97
2022-10-17T19:11:31.938Z,74.41
2022-10-17T19:14:02.590Z,74.93
2022-10-17T19:16:34.610Z,74.28
2022-10-17T19:19:05.991Z,75.17
2022-10-17T19:21:34.606Z,75.23
2022-10-17T19:24:04.941Z,75.45
2022-10-17T19:26:36.176Z,75.34
2022-10-17T19:29:04.816Z,75.04
2022-10-17T19:31:33.749Z,75.59
2022-10-17T19:34:01.171Z,75.85
2022-10-17T19:36:33.758Z,75.69
2022-10-17T19:39:23.362Z,75.85
2022-10-17T19:41:50.660Z,76.19
2022-10-17T19:44:18.346Z,76.80
2022-10-17T19:46:47.046Z,76.71
2022-10-17T19:49:14.853Z,76.81
2022-10-17T19:51:41.869Z,76.33
2022-10-17T19:54:09.748Z,76.92
2022-10-17T19:56:38.391Z,76.08
2022-10-17T19:59:07.465Z,75.93
2022-10-17T20:01:38.869Z,75.95
2022-10-17T20:04:08.649Z,76.57
2022-10-17T20:06:35.772Z,76.44
2022-10-17T20:09:05.092Z,76.79
2022-10-17T20:11:32.586Z,76.25
2022-10-17T20:14:01.995Z,76.23
2022-10-17T20:16:33.327Z,75.76
2022-10-17T20:19:11.168Z,76.33
2022-10-17T20:21:39.894Z,76.33
2022-10-17T20:24:11.217Z,76.41
2022-10-17T20:26:39.625Z,76.22
2022-10-17T20:29:15.631Z,76.78
2022-10-17T20:31:44.999Z,76.01
2022-10-17T20:34:15.269Z,76.64
2022-10-17T20:36:42.576Z,76.36
2022-10-17T20:39:12.310Z,76.71
2022-10-17T20:41:39.884Z,76.74
2022-10-17T20:44:07.533Z,76.67
2022-10-17T20:46:38.307Z,76.73
2022-10-17T20:49:13.720Z,77.09
2022-10-17T20:51:41.281Z,76.80
2022-10-17T20:54:08.368Z,77.15
2022-10-17T20:56:36.026Z,76.51
2022-10-17T20:59:12.365Z,77.33
2022-10-17T21:01:40.009Z,76.97
2022-10-17T21:04:33.318Z,77.08
2022-10-17T21:06:53.971Z,76.54
2022-10-17T21:09:22.219Z,76.32
2022-10-17T21:11:55.681Z,76.77
2022-10-17T21:14:24.987Z,76.72
2022-10-17T21:16:52.412Z,76.99
2022-10-17T21:19:20.063Z,77.05
2022-10-17T21:21:47.640Z,76.60
2022-10-17T21:24:18.089Z,77.01
2022-10-17T21:26:47.980Z,76.58
2022-10-17T21:29:15.192Z,76.49
2022-10-17T21:31:44.679Z,76.41
2022-10-17T21:34:18.485Z,76.41
2022-10-17T21:36:45.807Z,76.72
2022-10-17T21:39:14.661Z,77.03
2022-10-17T21:41:43.204Z,76.26
2022-10-17T21:44:18.435Z,77.01
2022-10-17T21:46:46.476Z,76.32
2022-10-17T21:49:16.403Z,77.03
2022-10-17T21:51:44.629Z,76.70
2022-10-17T21:54:12.087Z,77.09
2022-10-17T21:56:39.559Z,76.47
2022-10-17T21:59:07.153Z,76.76
2022-10-17T22:01:37.913Z,76.81
2022-10-17T22:04:11.478Z,77.62
2022-10-17T22:06:41.311Z,77.23
2022-10-17T22:09:15.858Z,76.94
2022-10-17T22:11:47.475Z,77.30
2022-10-17T22:14:18.274Z,76.76
2022-10-17T22:16:46.843Z,77.65
2022-10-17T22:19:18.877Z,76.80
2022-10-17T22:21:46.088Z,77.01
2022-10-17T22:24:16.110Z,77.40
2022-10-17T22:26:44.682Z,77.14
2022-10-17T22:29:12.375Z,77.35
2022-10-17T22:31:39.923Z,77.15
2022-10-17T22:34:08.099Z,77.53
2022-10-17T22:36:35.619Z,77.72
2022-10-17T22:39:04.145Z,77.14
2022-10-17T22:41:31.617Z,77.83
2022-10-17T22:43:58.647Z,76.86
2022-10-17T22:46:25.952Z,77.32
2022-10-17T22:48:53.034Z,77.10
2022-10-17T22:51:20.820Z,77.08
2022-10-17T22:53:47.835Z,77.30
2022-10-17T22:56:18.799Z,77.50
2022-10-17T22:58:46.663Z,77.43
2022-10-17T23:01:21.511Z,77.19
2022-10-17T23:03:49.262Z,77.54
2022-10-17T23:06:16.892Z,77.02
2022-10-17T23:08:44.422Z,77.24
2022-10-17T23:11:11.743Z,77.27
2022-10-17T23:13:40.752Z,77.04
2022-10-17T23:16:08.566Z,77.18
2022-10-17T23:18:37.302Z,77.32
2022-10-17T23:21:04.812Z,77.22
2022-10-17T23:23:31.782Z,77.23
2022-10-17T23:26:11.427Z,77.74
2022-10-17T23:28:38.644Z,76.63
2022-10-17T23:31:19.126Z,77.03
2022-10-17T23:33:48.420Z,77.10
2022-10-17T23:36:19.298Z,77.26
2022-10-17T23:38:47.493Z,77.25
2022-10-17T23:41:15.251Z,77.13
2022-10-17T23:43:43.489Z,77.10
2022-10-17T23:46:11.358Z,77.11
2022-10-17T23:48:38.968Z,76.82
2022-10-17T23:51:07.645Z,77.19
2022-10-17T23:53:36.343Z,77.46
2022-10-17T23:56:04.301Z,77.79
2022-10-17T23:58:31.491Z,77.83
